Time,TemperatureF,DewpointF,PressureIn,WindDirection,WindDirectionDegrees,WindSpeedMPH,WindSpeedGustMPH,Humidity,HourlyPrecipIn,Conditions,Clouds,dailyrainin,SoftwareType,DateUTC
2013-12-12 00:01:00,25.3,8.4,30.14,WSW,248,2.2,3.6,48,0.00,,---,0.00,VWS V14.01,2013-12-12 07:01:00,
2013-12-12 00:06:00,26.2,9.7,30.14,SSW,192,3.6,5.4,49,0.00,,---,0.00,VWS V14.01,2013-12-12 07:06:00,
2013-12-12 00:11:00,27.0,9.4,30.14,South,189,10.1,10.1,47,0.00,,---,0.00,VWS V14.01,2013-12-12 07:11:00,
2013-12-12 00:16:00,27.5,9.4,30.14,SSW,198,8.1,8.1,46,0.00,,---,0.00,VWS V14.01,2013-12-12 07:16:00,
2013-12-12 00:21:00,27.9,9.3,30.14,South,169,5.4,8.3,45,0.00,,---,0.00,VWS V14.01,2013-12-12 07:21:00,
2013-12-12 00:26:00,28.2,9.1,30.14,SSW,205,3.6,8.3,44,0.00,,---,0.00,VWS V14.01,2013-12-12 07:26:00,
2013-12-12 00:31:00,28.0,8.9,30.14,SSE,150,5.4,6.3,44,0.00,,---,0.00,VWS V14.01,2013-12-12 07:31:00,
2013-12-12 00:36:00,28.0,8.4,30.14,SSW,201,0.0,6.3,43,0.00,,---,0.00,VWS V14.01,2013-12-12 07:36:00,
2013-12-12 00:41:00,27.3,7.3,30.17,NNE,12,4.0,6.3,42,0.00,,---,0.00,VWS V14.01,2013-12-12 07:41:00,
2013-12-12 00:46:00,24.8,5.5,30.17,North,6,3.6,3.6,43,0.00,,---,0.00,VWS V14.01,2013-12-12 07:46:00,
2013-12-12 00:51:00,23.5,4.3,30.17,North,8,0.0,4.5,43,0.00,,---,0.00,VWS V14.01,2013-12-12 07:51:00,
2013-12-12 00:56:00,22.3,4.2,30.17,NE,49,2.2,4.5,45,0.00,,---,0.00,VWS V14.01,2013-12-12 07:56:00,
2013-12-12 01:01:00,21.4,3.3,30.17,NE,43,0.0,0.0,45,0.00,,---,0.00,VWS V14.01,2013-12-12 08:01:00,
2013-12-12 01:06:00,20.7,2.7,30.17,NE,43,0.0,0.0,45,0.00,,---,0.00,VWS V14.01,2013-12-12 08:06:00,
2013-12-12 01:11:00,20.3,3.3,30.14,NW,318,0.0,3.1,47,0.00,,---,0.00,VWS V14.01,2013-12-12 08:11:00,
2013-12-12 01:16:00,20.3,3.8,30.14,SSE,164,0.0,0.0,48,0.00,,---,0.00,VWS V14.01,2013-12-12 08:16:00,
2013-12-12 01:21:00,20.7,4.1,30.14,ESE,119,0.0,2.7,48,0.00,,---,0.00,VWS V14.01,2013-12-12 08:21:00,
2013-12-12 01:26:00,20.7,4.5,30.14,ESE,119,0.0,2.7,49,0.00,,---,0.00,VWS V14.01,2013-12-12 08:26:00,
2013-12-12 01:31:00,20.8,6.0,30.14,North,3,0.0,0.0,52,0.00,,---,0.00,VWS V14.01,2013-12-12 08:31:00,
2013-12-12 01:36:00,21.0,6.2,30.14,North,2,0.0,0.0,52,0.00,,---,0.00,VWS V14.01,2013-12-12 08:36:00,
2013-12-12 01:41:00,21.2,5.9,30.14,North,2,0.0,0.0,51,0.00,,---,0.00,VWS V14.01,2013-12-12 08:41:00,
2013-12-12 01:46:00,21.6,6.2,30.14,North,4,0.0,0.0,51,0.00,,---,0.00,VWS V14.01,2013-12-12 08:46:00,
2013-12-12 01:51:00,22.1,6.8,30.14,ESE,110,3.1,3.6,51,0.00,,---,0.00,VWS V14.01,2013-12-12 08:51:00,
2013-12-12 01:56:00,23.2,7.3,30.14,East,98,3.6,3.6,50,0.00,,---,0.00,VWS V14.01,2013-12-12 08:56:00,
2013-12-12 02:01:00,23.9,7.5,30.14,SE,135,2.2,3.6,49,0.00,,---,0.00,VWS V14.01,2013-12-12 09:01:00,
2013-12-12 02:06:00,23.5,7.2,30.14,SE,126,3.6,3.6,49,0.00,,---,0.00,VWS V14.01,2013-12-12 09:06:00,
2013-12-12 02:11:00,23.7,6.9,30.14,SE,136,4.0,5.4,48,0.00,,---,0.00,VWS V14.01,2013-12-12 09:11:00,
2013-12-12 02:16:00,24.3,7.4,30.14,South,183,4.0,4.0,48,0.00,,---,0.00,VWS V14.01,2013-12-12 09:16:00,
2013-12-12 02:21:00,24.3,6.9,30.14,SSE,155,4.0,5.4,47,0.00,,---,0.00,VWS V14.01,2013-12-12 09:21:00,
2013-12-12 02:26:00,24.8,7.4,30.14,South,173,4.5,5.4,47,0.00,,---,0.00,VWS V14.01,2013-12-12 09:26:00,
2013-12-12 02:31:00,25.3,7.5,30.14,SSW,204,3.6,5.4,46,0.00,,---,0.00,VWS V14.01,2013-12-12 09:31:00,
2013-12-12 02:36:00,25.5,7.2,30.14,South,178,3.1,5.8,45,0.00,,---,0.00,VWS V14.01,2013-12-12 09:36:00,
2013-12-12 02:41:00,25.5,6.7,30.14,SSE,158,4.9,6.3,44,0.00,,---,0.00,VWS V14.01,2013-12-12 09:41:00,
2013-12-12 02:46:00,25.3,6.5,30.14,SE,136,2.7,3.6,44,0.00,,---,0.00,VWS V14.01,2013-12-12 09:46:00,
2013-12-12 02:51:00,25.0,6.2,30.14,SE,144,2.7,4.9,44,0.00,,---,0.00,VWS V14.01,2013-12-12 09:51:00,
2013-12-12 02:56:00,25.2,6.3,30.14,SSE,156,5.8,6.3,44,0.00,,---,0.00,VWS V14.01,2013-12-12 09:56:00,
2013-12-12 03:01:00,25.7,6.8,30.14,SE,130,5.8,5.8,44,0.00,,---,0.00,VWS V14.01,2013-12-12 10:01:00,
2013-12-12 03:06:00,26.1,7.2,30.14,SSE,150,4.0,5.8,44,0.00,,---,0.00,VWS V14.01,2013-12-12 10:06:00,
2013-12-12 03:11:00,26.2,7.3,30.14,SSE,165,4.0,6.3,44,0.00,,---,0.00,VWS V14.01,2013-12-12 10:11:00,
2013-12-12 03:16:00,26.4,7.5,30.14,SSE,147,4.9,5.4,44,0.00,,---,0.00,VWS V14.01,2013-12-12 10:16:00,
2013-12-12 03:21:00,26.6,7.1,30.14,SE,134,8.1,8.1,43,0.00,,---,0.00,VWS V14.01,2013-12-12 10:21:00,
2013-12-12 03:26:00,27.0,7.5,30.14,SSE,162,4.9,8.1,43,0.00,,---,0.00,VWS V14.01,2013-12-12 10:26:00,
2013-12-12 03:31:00,27.1,7.6,30.14,SE,143,3.6,6.3,43,0.00,,---,0.00,VWS V14.01,2013-12-12 10:31:00,
2013-12-12 03:36:00,27.1,7.1,30.14,SSE,151,6.3,6.7,42,0.00,,---,0.00,VWS V14.01,2013-12-12 10:36:00,
2013-12-12 03:41:00,27.3,7.3,30.14,SE,144,4.0,7.2,42,0.00,,---,0.00,VWS V14.01,2013-12-12 10:41:00,
2013-12-12 03:46:00,27.5,7.4,30.14,South,179,6.3,8.1,42,0.00,,---,0.00,VWS V14.01,2013-12-12 10:46:00,
2013-12-12 03:51:00,27.7,7.6,30.14,SSE,160,6.3,8.3,42,0.00,,---,0.00,VWS V14.01,2013-12-12 10:51:00,
2013-12-12 03:56:00,27.7,7.1,30.14,SE,142,3.1,8.3,41,0.00,,---,0.00,VWS V14.01,2013-12-12 10:56:00,
2013-12-12 04:01:00,27.7,7.1,30.14,South,177,6.3,8.7,41,0.00,,---,0.00,VWS V14.01,2013-12-12 11:01:00,
2013-12-12 04:06:00,27.5,6.9,30.14,SSE,157,5.4,8.7,41,0.00,,---,0.00,VWS V14.01,2013-12-12 11:06:00,
2013-12-12 04:11:00,27.3,6.7,30.14,SE,143,5.8,8.7,41,0.00,,---,0.00,VWS V14.01,2013-12-12 11:11:00,
2013-12-12 04:16:00,27.3,6.7,30.14,SE,133,5.4,5.8,41,0.00,,---,0.00,VWS V14.01,2013-12-12 11:16:00,
2013-12-12 04:21:00,27.5,6.9,30.14,SSE,147,3.6,8.1,41,0.00,,---,0.00,VWS V14.01,2013-12-12 11:21:00,
2013-12-12 04:26:00,27.3,6.7,30.11,South,175,5.4,8.1,41,0.00,,---,0.00,VWS V14.01,2013-12-12 11:26:00,
2013-12-12 04:31:00,27.3,6.7,30.11,South,183,4.0,5.4,41,0.00,,---,0.00,VWS V14.01,2013-12-12 11:31:00,
2013-12-12 04:36:00,27.3,6.7,30.11,SSE,165,4.0,5.4,41,0.00,,---,0.00,VWS V14.01,2013-12-12 11:36:00,
2013-12-12 04:41:00,27.3,6.7,30.11,SSE,155,3.1,5.4,41,0.00,,---,0.00,VWS V14.01,2013-12-12 11:41:00,
2013-12-12 04:46:00,27.1,6.6,30.11,SE,142,2.2,3.6,41,0.00,,---,0.00,VWS V14.01,2013-12-12 11:46:00,
2013-12-12 04:51:00,27.0,6.4,30.11,SSE,160,2.7,3.6,41,0.00,,---,0.00,VWS V14.01,2013-12-12 11:51:00,
2013-12-12 04:56:00,26.2,5.8,30.11,SSW,206,0.0,3.6,41,0.00,,---,0.00,VWS V14.01,2013-12-12 11:56:00,
2013-12-12 05:01:00,25.3,4.9,30.11,SSW,206,0.0,0.0,41,0.00,,---,0.00,VWS V14.01,2013-12-12 12:01:00,
2013-12-12 05:06:00,24.4,4.7,30.11,WSW,241,0.0,3.1,42,0.00,,---,0.00,VWS V14.01,2013-12-12 12:06:00,
2013-12-12 05:11:00,24.1,4.3,30.11,SSW,200,4.0,4.0,42,0.00,,---,0.00,VWS V14.01,2013-12-12 12:11:00,
2013-12-12 05:16:00,23.9,4.2,30.11,SW,228,0.0,0.0,42,0.00,,---,0.00,VWS V14.01,2013-12-12 12:16:00,
2013-12-12 05:21:00,23.5,3.8,30.11,SSE,166,0.0,3.1,42,0.00,,---,0.00,VWS V14.01,2013-12-12 12:21:00,
2013-12-12 05:26:00,23.0,4.3,30.11,West,261,0.0,3.1,44,0.00,,---,0.00,VWS V14.01,2013-12-12 12:26:00,
2013-12-12 05:31:00,22.3,4.2,30.11,WNW,283,0.0,3.6,45,0.00,,---,0.00,VWS V14.01,2013-12-12 12:31:00,
2013-12-12 05:36:00,21.9,4.3,30.11,WNW,283,0.0,3.6,46,0.00,,---,0.00,VWS V14.01,2013-12-12 12:36:00,
2013-12-12 05:41:00,22.1,4.0,30.11,South,190,3.1,3.6,45,0.00,,---,0.00,VWS V14.01,2013-12-12 12:41:00,
2013-12-12 05:46:00,21.9,3.8,30.11,SW,224,3.1,3.6,45,0.00,,---,0.00,VWS V14.01,2013-12-12 12:46:00,
2013-12-12 05:51:00,21.9,3.8,30.11,West,270,0.0,4.0,45,0.00,,---,0.00,VWS V14.01,2013-12-12 12:51:00,
2013-12-12 05:56:00,21.9,4.3,30.11,West,265,2.7,4.0,46,0.00,,---,0.00,VWS V14.01,2013-12-12 12:56:00,
2013-12-12 06:01:00,21.2,3.7,30.11,WNW,288,0.0,0.0,46,0.00,,---,0.00,VWS V14.01,2013-12-12 13:01:00,
2013-12-12 06:06:00,20.8,4.2,30.11,WSW,250,0.0,0.0,48,0.00,,---,0.00,VWS V14.01,2013-12-12 13:06:00,
2013-12-12 06:11:00,21.2,4.6,30.08,WSW,250,0.0,0.0,48,0.00,,---,0.00,VWS V14.01,2013-12-12 13:11:00,
2013-12-12 06:16:00,21.7,5.5,30.08,WNW,286,0.0,0.0,49,0.00,,---,0.00,VWS V14.01,2013-12-12 13:16:00,
2013-12-12 06:21:00,21.9,5.2,30.08,West,260,0.0,0.0,48,0.00,,---,0.00,VWS V14.01,2013-12-12 13:21:00,
2013-12-12 06:26:00,22.1,5.4,30.08,SSW,209,0.0,0.0,48,0.00,,---,0.00,VWS V14.01,2013-12-12 13:26:00,
2013-12-12 06:31:00,22.5,5.8,30.08,West,273,3.6,3.6,48,0.00,,---,0.00,VWS V14.01,2013-12-12 13:31:00,
2013-12-12 06:36:00,22.8,6.5,30.08,WNW,303,0.0,4.9,49,0.00,,---,0.00,VWS V14.01,2013-12-12 13:36:00,
2013-12-12 06:41:00,22.8,6.1,30.08,West,263,0.0,4.9,48,0.00,,---,0.00,VWS V14.01,2013-12-12 13:41:00,
2013-12-12 06:46:00,23.2,6.4,30.08,WSW,258,0.0,0.0,48,0.00,,---,0.00,VWS V14.01,2013-12-12 13:46:00,
2013-12-12 06:51:00,24.1,7.7,30.08,South,186,3.1,3.1,49,0.00,,---,0.00,VWS V14.01,2013-12-12 13:51:00,
2013-12-12 06:56:00,25.2,8.2,30.08,SSE,168,2.7,5.8,48,0.00,,---,0.00,VWS V14.01,2013-12-12 13:56:00,
2013-12-12 07:01:00,25.9,8.4,30.08,South,179,4.9,6.3,47,0.00,,---,0.00,VWS V14.01,2013-12-12 14:01:00,
2013-12-12 07:06:00,26.6,8.6,30.08,SSE,164,4.0,7.6,46,0.00,,---,0.00,VWS V14.01,2013-12-12 14:06:00,
2013-12-12 07:11:00,27.0,8.0,30.08,SSE,163,2.7,7.6,44,0.00,,---,0.00,VWS V14.01,2013-12-12 14:11:00,
2013-12-12 07:16:00,27.1,8.1,30.08,SSW,209,3.6,4.0,44,0.00,,---,0.00,VWS V14.01,2013-12-12 14:16:00,
2013-12-12 07:21:00,27.0,8.0,30.08,South,183,3.6,5.8,44,0.00,,---,0.00,VWS V14.01,2013-12-12 14:21:00,
2013-12-12 07:26:00,27.3,7.8,30.08,South,191,5.4,5.8,43,0.00,,---,0.00,VWS V14.01,2013-12-12 14:26:00,
2013-12-12 07:31:00,27.9,8.3,30.08,SE,145,3.1,5.8,43,0.00,,---,0.00,VWS V14.01,2013-12-12 14:31:00,
2013-12-12 07:36:00,28.0,7.9,30.08,SE,144,2.7,5.8,42,0.00,,---,0.00,VWS V14.01,2013-12-12 14:36:00,
2013-12-12 07:41:00,28.2,8.1,30.08,SSE,158,3.6,8.1,42,0.00,,---,0.00,VWS V14.01,2013-12-12 14:41:00,
2013-12-12 07:46:00,28.6,7.9,30.08,SSE,148,3.6,8.3,41,0.00,,---,0.00,VWS V14.01,2013-12-12 14:46:00,
2013-12-12 07:51:00,28.6,7.9,30.08,SSW,198,3.6,8.3,41,0.00,,---,0.00,VWS V14.01,2013-12-12 14:51:00,
2013-12-12 07:56:00,28.6,7.9,30.08,South,171,4.0,8.3,41,0.00,,---,0.00,VWS V14.01,2013-12-12 14:56:00,
2013-12-12 08:01:00,28.6,7.9,30.08,South,172,4.0,5.4,41,0.00,,---,0.00,VWS V14.01,2013-12-12 15:01:00,
2013-12-12 08:06:00,28.8,8.0,30.08,South,184,3.1,7.6,41,0.00,,---,0.00,VWS V14.01,2013-12-12 15:06:00,
2013-12-12 08:11:00,28.6,7.9,30.08,SE,146,0.0,7.6,41,0.00,,---,0.00,VWS V14.01,2013-12-12 15:11:00,
2013-12-12 08:16:00,28.4,7.7,30.08,SE,131,4.9,5.8,41,0.00,,---,0.00,VWS V14.01,2013-12-12 15:16:00,
2013-12-12 08:21:00,28.2,7.6,30.08,SE,134,5.4,6.3,41,0.00,,---,0.00,VWS V14.01,2013-12-12 15:21:00,
2013-12-12 08:26:00,28.2,7.6,30.08,SE,141,4.9,8.7,41,0.00,,---,0.00,VWS V14.01,2013-12-12 15:26:00,
2013-12-12 08:31:00,28.4,7.7,30.08,SSE,147,3.1,5.4,41,0.00,,---,0.00,VWS V14.01,2013-12-12 15:31:00,
2013-12-12 08:36:00,28.6,7.3,30.08,SE,138,4.0,8.1,40,0.00,,---,0.00,VWS V14.01,2013-12-12 15:36:00,
2013-12-12 08:41:00,28.9,7.7,30.08,South,175,4.0,8.1,40,0.00,,---,0.00,VWS V14.01,2013-12-12 15:41:00,
2013-12-12 08:46:00,29.8,9.0,30.08,SSE,154,2.7,4.0,41,0.00,,---,0.00,VWS V14.01,2013-12-12 15:46:00,
2013-12-12 08:51:00,30.9,9.4,30.08,ESE,121,2.2,4.0,40,0.00,,---,0.00,VWS V14.01,2013-12-12 15:51:00,
2013-12-12 08:56:00,31.6,10.1,30.08,SSE,149,0.0,4.0,40,0.00,,---,0.00,VWS V14.01,2013-12-12 15:56:00,
2013-12-12 09:01:00,32.0,9.9,30.08,SSE,149,0.0,0.0,39,0.00,,---,0.00,VWS V14.01,2013-12-12 16:01:00,
2013-12-12 09:06:00,32.4,10.2,30.08,ENE,72,0.0,0.0,39,0.00,,---,0.00,VWS V14.01,2013-12-12 16:06:00,
2013-12-12 09:11:00,33.3,10.4,30.08,East,90,2.2,4.0,38,0.00,,---,0.00,VWS V14.01,2013-12-12 16:11:00,
2013-12-12 09:16:00,34.2,10.6,30.08,ESE,110,3.6,4.0,37,0.00,,---,0.00,VWS V14.01,2013-12-12 16:16:00,
2013-12-12 09:21:00,34.9,11.3,30.08,ESE,122,3.6,5.4,37,0.00,,---,0.00,VWS V14.01,2013-12-12 16:21:00,
2013-12-12 09:26:00,35.6,10.7,30.08,East,90,3.1,5.4,35,0.00,,---,0.00,VWS V14.01,2013-12-12 16:26:00,
2013-12-12 09:31:00,36.3,11.3,30.08,East,84,2.7,4.0,35,0.00,,---,0.00,VWS V14.01,2013-12-12 16:31:00,
2013-12-12 09:36:00,36.9,11.1,30.08,ENE,77,3.6,5.4,34,0.00,,---,0.00,VWS V14.01,2013-12-12 16:36:00,
2013-12-12 09:41:00,37.2,11.4,30.08,East,101,2.7,5.4,34,0.00,,---,0.00,VWS V14.01,2013-12-12 16:41:00,
2013-12-12 09:46:00,38.5,11.9,30.08,East,97,3.1,4.0,33,0.00,,---,0.00,VWS V14.01,2013-12-12 16:46:00,
2013-12-12 09:51:00,39.9,11.8,30.08,East,88,5.8,5.8,31,0.00,,---,0.00,VWS V14.01,2013-12-12 16:51:00,
2013-12-12 09:56:00,40.5,11.5,30.08,NE,45,3.6,6.3,30,0.00,,---,0.00,VWS V14.01,2013-12-12 16:56:00,
2013-12-12 10:01:00,41.2,11.4,30.08,ESE,115,4.0,5.4,29,0.00,,---,0.00,VWS V14.01,2013-12-12 17:01:00,
2013-12-12 10:06:00,41.0,11.2,30.08,NE,40,3.6,5.4,29,0.00,,---,0.00,VWS V14.01,2013-12-12 17:06:00,
2013-12-12 10:11:00,42.3,12.3,30.08,SE,127,0.0,6.3,29,0.00,,---,0.00,VWS V14.01,2013-12-12 17:11:00,
2013-12-12 10:16:00,43.2,12.3,30.08,NNE,21,2.7,3.1,28,0.00,,---,0.00,VWS V14.01,2013-12-12 17:16:00,
2013-12-12 10:21:00,43.5,12.6,30.08,ENE,64,3.1,4.0,28,0.00,,---,0.00,VWS V14.01,2013-12-12 17:21:00,
2013-12-12 10:26:00,44.1,13.1,30.08,SSE,151,3.6,5.8,28,0.00,,---,0.00,VWS V14.01,2013-12-12 17:26:00,
2013-12-12 10:31:00,44.4,13.4,30.08,SSW,197,3.6,5.8,28,0.00,,---,0.00,VWS V14.01,2013-12-12 17:31:00,
2013-12-12 10:36:00,43.9,12.9,30.08,SSE,151,3.6,8.7,28,0.00,,---,0.00,VWS V14.01,2013-12-12 17:36:00,
2013-12-12 10:41:00,44.1,13.1,30.08,WSW,239,5.8,8.7,28,0.00,,---,0.00,VWS V14.01,2013-12-12 17:41:00,
2013-12-12 10:46:00,43.9,12.9,30.08,WSW,258,3.6,6.3,28,0.00,,---,0.00,VWS V14.01,2013-12-12 17:46:00,
2013-12-12 10:51:00,43.5,12.6,30.08,SSW,202,5.8,10.1,28,0.00,,---,0.00,VWS V14.01,2013-12-12 17:51:00,
2013-12-12 10:56:00,43.0,12.1,30.05,SSE,150,5.8,10.1,28,0.00,,---,0.00,VWS V14.01,2013-12-12 17:56:00,
2013-12-12 11:01:00,42.6,11.8,30.05,South,184,7.6,10.1,28,0.00,,---,0.00,VWS V14.01,2013-12-12 18:01:00,
2013-12-12 11:06:00,42.4,11.7,30.05,SSE,152,8.7,10.5,28,0.00,,---,0.00,VWS V14.01,2013-12-12 18:06:00,
2013-12-12 11:11:00,41.7,11.0,30.05,SE,136,7.6,12.3,28,0.00,,---,0.00,VWS V14.01,2013-12-12 18:11:00,
2013-12-12 11:16:00,42.1,11.3,30.05,South,173,10.1,10.1,28,0.00,,---,0.00,VWS V14.01,2013-12-12 18:16:00,
2013-12-12 11:21:00,42.4,11.7,30.05,SSE,166,8.7,10.5,28,0.00,,---,0.00,VWS V14.01,2013-12-12 18:21:00,
2013-12-12 11:26:00,42.8,12.0,30.05,SSE,149,4.0,10.5,28,0.00,,---,0.00,VWS V14.01,2013-12-12 18:26:00,
2013-12-12 11:31:00,43.2,12.3,30.05,SSE,148,10.5,10.5,28,0.00,,---,0.00,VWS V14.01,2013-12-12 18:31:00,
2013-12-12 11:36:00,43.5,12.6,30.05,South,191,9.2,12.3,28,0.00,,---,0.00,VWS V14.01,2013-12-12 18:36:00,
2013-12-12 11:41:00,43.7,10.2,30.05,SE,142,4.0,12.3,25,0.00,,---,0.00,VWS V14.01,2013-12-12 18:41:00,
2013-12-12 11:46:00,44.1,10.5,30.05,SSE,154,8.1,8.1,25,0.00,,---,0.00,VWS V14.01,2013-12-12 18:46:00,
2013-12-12 11:51:00,44.2,10.7,30.05,SSW,207,5.4,10.5,25,0.00,,---,0.00,VWS V14.01,2013-12-12 18:51:00,
2013-12-12 11:56:00,44.6,11.0,30.02,South,185,5.4,10.5,25,0.00,,---,0.00,VWS V14.01,2013-12-12 18:56:00,
2013-12-12 12:01:00,44.6,11.0,30.02,SE,124,4.0,6.3,25,0.00,,---,0.00,VWS V14.01,2013-12-12 19:01:00,
2013-12-12 12:06:00,45.3,11.6,30.02,SSW,211,3.6,12.3,25,0.00,,---,0.00,VWS V14.01,2013-12-12 19:06:00,
2013-12-12 12:11:00,45.1,11.4,30.02,South,185,5.8,12.3,25,0.00,,---,0.00,VWS V14.01,2013-12-12 19:11:00,
2013-12-12 12:16:00,45.1,11.4,30.02,SSE,166,6.3,15.0,25,0.00,,---,0.00,VWS V14.01,2013-12-12 19:16:00,
2013-12-12 12:21:00,45.3,11.6,30.02,SSE,147,6.7,15.0,25,0.00,,---,0.00,VWS V14.01,2013-12-12 19:21:00,
2013-12-12 12:26:00,45.9,12.0,30.02,SSE,151,6.3,15.0,25,0.00,,---,0.00,VWS V14.01,2013-12-12 19:26:00,
2013-12-12 12:31:00,46.4,11.6,30.02,SSW,208,9.2,13.2,24,0.00,,---,0.00,VWS V14.01,2013-12-12 19:31:00,
2013-12-12 12:36:00,45.9,12.0,30.02,South,186,3.6,13.2,25,0.00,,---,0.00,VWS V14.01,2013-12-12 19:36:00,
2013-12-12 12:41:00,45.7,11.9,29.99,South,173,5.8,13.2,25,0.00,,---,0.00,VWS V14.01,2013-12-12 19:41:00,
2013-12-12 12:46:00,45.5,11.7,29.99,ESE,117,3.1,5.4,25,0.00,,---,0.00,VWS V14.01,2013-12-12 19:46:00,
2013-12-12 12:51:00,45.9,12.0,29.99,ESE,120,5.8,8.7,25,0.00,,---,0.00,VWS V14.01,2013-12-12 19:51:00,
2013-12-12 12:56:00,45.9,12.0,29.99,SSE,147,5.4,11.0,25,0.00,,---,0.00,VWS V14.01,2013-12-12 19:56:00,
2013-12-12 13:01:00,45.9,12.0,29.99,SE,133,8.1,11.0,25,0.00,,---,0.00,VWS V14.01,2013-12-12 20:01:00,
2013-12-12 13:06:00,46.0,12.2,29.99,South,172,5.4,11.0,25,0.00,,---,0.00,VWS V14.01,2013-12-12 20:06:00,
2013-12-12 13:11:00,46.4,11.6,29.99,ESE,119,4.5,11.0,24,0.00,,---,0.00,VWS V14.01,2013-12-12 20:11:00,
2013-12-12 13:16:00,46.6,11.7,29.99,SSE,159,5.4,7.2,24,0.00,,---,0.00,VWS V14.01,2013-12-12 20:16:00,
2013-12-12 13:21:00,46.9,12.1,29.99,ESE,117,8.1,8.3,24,0.00,,---,0.00,VWS V14.01,2013-12-12 20:21:00,
2013-12-12 13:26:00,47.7,12.7,29.99,SSW,196,4.9,8.3,24,0.00,,---,0.00,VWS V14.01,2013-12-12 20:26:00,
2013-12-12 13:31:00,48.6,13.4,29.99,SSW,207,4.0,5.8,24,0.00,,---,0.00,VWS V14.01,2013-12-12 20:31:00,
2013-12-12 13:36:00,48.7,13.6,29.99,ESE,106,5.4,7.6,24,0.00,,---,0.00,VWS V14.01,2013-12-12 20:36:00,
2013-12-12 13:41:00,48.6,13.4,29.96,SE,130,4.9,7.6,24,0.00,,---,0.00,VWS V14.01,2013-12-12 20:41:00,
2013-12-12 13:46:00,49.1,13.9,29.96,SE,145,3.1,4.0,24,0.00,,---,0.00,VWS V14.01,2013-12-12 20:46:00,
2013-12-12 13:51:00,50.2,14.8,29.96,ESE,108,3.6,6.3,24,0.00,,---,0.00,VWS V14.01,2013-12-12 20:51:00,
2013-12-12 13:56:00,51.3,15.7,29.96,East,82,3.6,6.3,24,0.00,,---,0.00,VWS V14.01,2013-12-12 20:56:00,
2013-12-12 14:01:00,52.2,13.4,29.96,NNE,15,2.7,2.7,21,0.00,,---,0.00,VWS V14.01,2013-12-12 21:01:00,
2013-12-12 14:06:00,52.7,16.0,29.96,East,91,0.0,3.1,23,0.00,,---,0.00,VWS V14.01,2013-12-12 21:06:00,
2013-12-12 14:11:00,53.2,14.3,29.96,SSE,159,5.8,5.8,21,0.00,,---,0.00,VWS V14.01,2013-12-12 21:11:00,
2013-12-12 14:16:00,52.2,13.4,29.96,SE,131,3.6,5.4,21,0.00,,---,0.00,VWS V14.01,2013-12-12 21:16:00,
2013-12-12 14:21:00,51.6,13.0,29.96,South,189,3.6,6.3,21,0.00,,---,0.00,VWS V14.01,2013-12-12 21:21:00,
2013-12-12 14:25:00,51.6,13.0,29.96,SE,144,5.4,8.3,21,0.00,,---,0.00,VWS V14.01,2013-12-12 21:25:00,
2013-12-12 14:30:00,51.1,12.5,29.96,SE,145,5.4,8.3,21,0.00,,---,0.00,VWS V14.01,2013-12-12 21:30:00,
2013-12-12 14:35:00,50.7,12.2,29.96,ESE,103,5.4,7.2,21,0.00,,---,0.00,VWS V14.01,2013-12-12 21:35:00,
2013-12-12 14:40:00,50.4,11.9,29.96,South,170,3.1,8.1,21,0.00,,---,0.00,VWS V14.01,2013-12-12 21:40:00,
2013-12-12 14:45:00,50.2,11.8,29.96,South,169,5.4,8.1,21,0.00,,---,0.00,VWS V14.01,2013-12-12 21:45:00,
2013-12-12 14:50:00,50.5,12.1,29.96,SSW,208,2.7,6.3,21,0.00,,---,0.00,VWS V14.01,2013-12-12 21:50:00,
2013-12-12 14:55:00,50.9,12.4,29.96,ESE,118,2.7,6.3,21,0.00,,---,0.00,VWS V14.01,2013-12-12 21:55:00,
2013-12-12 15:00:00,51.3,12.7,29.96,North,357,2.7,6.3,21,0.00,,---,0.00,VWS V14.01,2013-12-12 22:00:00,
2013-12-12 15:05:00,46.8,11.9,29.96,NW,325,4.9,6.3,24,0.00,,---,0.00,VWS V14.01,2013-12-12 22:05:00,
2013-12-12 15:10:00,44.2,13.2,29.96,North,5,4.0,6.3,28,0.00,,---,0.00,VWS V14.01,2013-12-12 22:10:00,
2013-12-12 15:15:00,43.0,12.1,29.96,North,8,6.3,7.2,28,0.00,,---,0.00,VWS V14.01,2013-12-12 22:15:00,
2013-12-12 15:20:00,42.6,11.8,29.96,North,357,8.1,8.3,28,0.00,,---,0.00,VWS V14.01,2013-12-12 22:20:00,
2013-12-12 15:25:00,40.8,11.0,29.96,NNE,17,6.7,9.2,29,0.00,,---,0.00,VWS V14.01,2013-12-12 22:25:00,
2013-12-12 15:29:00,39.7,10.1,29.96,North,0,7.6,9.2,29,0.00,,---,0.00,VWS V14.01,2013-12-12 22:29:00,
2013-12-12 15:34:00,39.0,10.2,29.96,North,357,5.8,7.6,30,0.00,,---,0.00,VWS V14.01,2013-12-12 22:34:00,
2013-12-12 15:39:00,38.5,10.5,29.96,North,0,3.6,7.6,31,0.00,,---,0.00,VWS V14.01,2013-12-12 22:39:00,
2013-12-12 15:44:00,38.1,10.2,29.96,WNW,299,0.0,7.6,31,0.00,,---,0.00,VWS V14.01,2013-12-12 22:44:00,
2013-12-12 15:49:00,37.8,9.9,29.96,North,1,5.4,6.7,31,0.00,,---,0.00,VWS V14.01,2013-12-12 22:49:00,
2013-12-12 15:54:00,37.2,10.1,29.96,North,4,3.6,7.6,32,0.00,,---,0.00,VWS V14.01,2013-12-12 22:54:00,
2013-12-12 15:59:00,37.0,9.9,29.96,NNW,335,0.0,7.6,32,0.00,,---,0.00,VWS V14.01,2013-12-12 22:59:00,
2013-12-12 16:04:00,36.7,10.3,29.96,North,3,3.6,5.4,33,0.00,,---,0.00,VWS V14.01,2013-12-12 23:04:00,
2013-12-12 16:09:00,36.1,9.8,29.96,North,0,2.7,5.4,33,0.00,,---,0.00,VWS V14.01,2013-12-12 23:09:00,
2013-12-12 16:14:00,35.8,9.5,29.96,North,357,3.1,6.3,33,0.00,,---,0.00,VWS V14.01,2013-12-12 23:14:00,
2013-12-12 16:19:00,35.6,9.4,29.96,North,353,4.0,5.8,33,0.00,,---,0.00,VWS V14.01,2013-12-12 23:19:00,
2013-12-12 16:24:00,35.2,9.7,29.96,North,0,4.9,5.8,34,0.00,,---,0.00,VWS V14.01,2013-12-12 23:24:00,
2013-12-12 16:29:00,34.9,9.4,29.96,North,357,3.6,5.8,34,0.00,,---,0.00,VWS V14.01,2013-12-12 23:29:00,
2013-12-12 16:34:00,34.3,8.9,29.96,North,3,0.0,3.6,34,0.00,,---,0.00,VWS V14.01,2013-12-12 23:34:00,
2013-12-12 16:39:00,34.0,8.6,29.96,North,357,0.0,3.6,34,0.00,,---,0.00,VWS V14.01,2013-12-12 23:39:00,
2013-12-12 16:44:00,33.6,8.3,29.96,North,357,0.0,3.6,34,0.00,,---,0.00,VWS V14.01,2013-12-12 23:44:00,
2013-12-12 16:49:00,33.1,8.4,29.96,North,357,0.0,0.0,35,0.00,,---,0.00,VWS V14.01,2013-12-12 23:49:00,
2013-12-12 16:54:00,32.7,8.1,29.96,North,357,0.0,0.0,35,0.00,,---,0.00,VWS V14.01,2013-12-12 23:54:00,
2013-12-12 16:59:00,32.5,8.6,29.96,North,357,0.0,0.0,36,0.00,,---,0.00,VWS V14.01,2013-12-12 23:59:00,
2013-12-12 17:04:00,32.0,7.5,29.96,North,357,0.0,0.0,35,0.00,,---,0.00,VWS V14.01,2013-12-13 00:04:00,
2013-12-12 17:09:00,31.3,6.8,29.96,North,357,0.0,0.0,35,0.00,,---,0.00,VWS V14.01,2013-12-13 00:09:00,
2013-12-12 17:14:00,30.7,7.0,29.96,North,357,0.0,0.0,36,0.00,,---,0.00,VWS V14.01,2013-12-13 00:14:00,
2013-12-12 17:19:00,30.2,6.5,29.96,North,357,0.0,0.0,36,0.00,,---,0.00,VWS V14.01,2013-12-13 00:19:00,
2013-12-12 17:24:00,29.8,6.8,29.96,NNW,340,0.0,0.0,37,0.00,,---,0.00,VWS V14.01,2013-12-13 00:24:00,
2013-12-12 17:29:00,29.1,7.3,29.96,NNW,340,0.0,0.0,39,0.00,,---,0.00,VWS V14.01,2013-12-13 00:29:00,
2013-12-12 17:34:00,28.6,7.3,29.96,SSW,213,0.0,0.0,40,0.00,,---,0.00,VWS V14.01,2013-12-13 00:34:00,
2013-12-12 17:39:00,28.2,7.6,29.96,SSW,213,0.0,0.0,41,0.00,,---,0.00,VWS V14.01,2013-12-13 00:39:00,
2013-12-12 17:44:00,27.9,7.2,29.96,WSW,258,0.0,0.0,41,0.00,,---,0.00,VWS V14.01,2013-12-13 00:44:00,
2013-12-12 17:49:00,27.5,7.4,29.96,WSW,258,0.0,0.0,42,0.00,,---,0.00,VWS V14.01,2013-12-13 00:49:00,
2013-12-12 17:54:00,27.1,6.6,29.96,WSW,258,0.0,0.0,41,0.00,,---,0.00,VWS V14.01,2013-12-13 00:54:00,
2013-12-12 17:59:00,27.0,6.4,29.96,WSW,258,0.0,0.0,41,0.00,,---,0.00,VWS V14.01,2013-12-13 00:59:00,
2013-12-12 18:04:00,26.4,6.4,29.96,WSW,258,0.0,0.0,42,0.00,,---,0.00,VWS V14.01,2013-12-13 01:04:00,
2013-12-12 18:09:00,26.1,6.1,29.99,WSW,258,0.0,0.0,42,0.00,,---,0.00,VWS V14.01,2013-12-13 01:09:00,
2013-12-12 18:14:00,26.1,6.1,29.99,WSW,258,0.0,0.0,42,0.00,,---,0.00,VWS V14.01,2013-12-13 01:14:00,
2013-12-12 18:19:00,26.1,6.1,29.99,WSW,258,0.0,0.0,42,0.00,,---,0.00,VWS V14.01,2013-12-13 01:19:00,
2013-12-12 18:24:00,26.1,6.1,29.96,WSW,258,0.0,0.0,42,0.00,,---,0.00,VWS V14.01,2013-12-13 01:24:00,
2013-12-12 18:29:00,26.1,6.1,29.96,WSW,258,0.0,0.0,42,0.00,,---,0.00,VWS V14.01,2013-12-13 01:29:00,
2013-12-12 18:34:00,25.7,6.3,29.96,WSW,258,0.0,0.0,43,0.00,,---,0.00,VWS V14.01,2013-12-13 01:34:00,
2013-12-12 18:39:00,25.7,6.3,29.96,WSW,258,0.0,0.0,43,0.00,,---,0.00,VWS V14.01,2013-12-13 01:39:00,
2013-12-12 18:44:00,25.7,6.8,29.96,WSW,258,0.0,0.0,44,0.00,,---,0.00,VWS V14.01,2013-12-13 01:44:00,
2013-12-12 18:49:00,25.7,7.3,29.96,WSW,258,0.0,0.0,45,0.00,,---,0.00,VWS V14.01,2013-12-13 01:49:00,
2013-12-12 18:54:00,25.3,7.0,29.96,WSW,258,0.0,0.0,45,0.00,,---,0.00,VWS V14.01,2013-12-13 01:54:00,
2013-12-12 18:59:00,25.2,6.8,29.96,West,263,0.0,0.0,45,0.00,,---,0.00,VWS V14.01,2013-12-13 01:59:00,
2013-12-12 19:04:00,25.0,6.7,29.96,West,263,0.0,0.0,45,0.00,,---,0.00,VWS V14.01,2013-12-13 02:04:00,
2013-12-12 19:09:00,24.8,7.0,29.96,West,262,0.0,0.0,46,0.00,,---,0.00,VWS V14.01,2013-12-13 02:09:00,
2013-12-12 19:14:00,25.0,6.7,29.96,West,262,0.0,0.0,45,0.00,,---,0.00,VWS V14.01,2013-12-13 02:14:00,
2013-12-12 19:19:00,25.0,6.7,29.96,West,263,0.0,0.0,45,0.00,,---,0.00,VWS V14.01,2013-12-13 02:19:00,
2013-12-12 19:24:00,24.8,7.0,29.96,West,262,0.0,0.0,46,0.00,,---,0.00,VWS V14.01,2013-12-13 02:24:00,
2013-12-12 19:29:00,25.0,6.7,29.96,WSW,241,0.0,0.0,45,0.00,,---,0.00,VWS V14.01,2013-12-13 02:29:00,
2013-12-12 19:34:00,25.2,7.3,29.96,WSW,244,0.0,0.0,46,0.00,,---,0.00,VWS V14.01,2013-12-13 02:34:00,
2013-12-12 19:39:00,25.2,7.3,29.96,SW,234,0.0,0.0,46,0.00,,---,0.00,VWS V14.01,2013-12-13 02:39:00,
2013-12-12 19:44:00,25.2,7.8,29.96,SW,234,0.0,0.0,47,0.00,,---,0.00,VWS V14.01,2013-12-13 02:44:00,
2013-12-12 19:49:00,25.0,7.6,29.96,WSW,237,0.0,0.0,47,0.00,,---,0.00,VWS V14.01,2013-12-13 02:49:00,
2013-12-12 19:54:00,25.2,8.2,29.96,South,183,0.0,0.0,48,0.00,,---,0.00,VWS V14.01,2013-12-13 02:54:00,
2013-12-12 19:59:00,25.0,8.1,29.96,SSW,204,0.0,0.0,48,0.00,,---,0.00,VWS V14.01,2013-12-13 02:59:00,
2013-12-12 20:04:00,25.0,8.1,29.96,SSW,204,0.0,0.0,48,0.00,,---,0.00,VWS V14.01,2013-12-13 03:04:00,
2013-12-12 20:09:00,25.2,8.7,29.96,WSW,239,0.0,0.0,49,0.00,,---,0.00,VWS V14.01,2013-12-13 03:09:00,
2013-12-12 20:14:00,25.0,8.5,29.96,WSW,239,0.0,0.0,49,0.00,,---,0.00,VWS V14.01,2013-12-13 03:14:00,
2013-12-12 20:19:00,25.0,8.5,29.96,WSW,239,0.0,0.0,49,0.00,,---,0.00,VWS V14.01,2013-12-13 03:19:00,
2013-12-12 20:24:00,25.2,8.7,29.96,WSW,239,0.0,0.0,49,0.00,,---,0.00,VWS V14.01,2013-12-13 03:24:00,
2013-12-12 20:29:00,25.2,9.1,29.96,WSW,239,0.0,0.0,50,0.00,,---,0.00,VWS V14.01,2013-12-13 03:29:00,
2013-12-12 20:34:00,25.0,9.4,29.96,WSW,239,0.0,0.0,51,0.00,,---,0.00,VWS V14.01,2013-12-13 03:34:00,
2013-12-12 20:39:00,24.8,9.2,29.96,WSW,239,0.0,0.0,51,0.00,,---,0.00,VWS V14.01,2013-12-13 03:39:00,
2013-12-12 20:44:00,24.4,8.9,29.96,WSW,239,0.0,0.0,51,0.00,,---,0.00,VWS V14.01,2013-12-13 03:44:00,
2013-12-12 20:49:00,24.1,8.1,29.96,WSW,239,0.0,0.0,50,0.00,,---,0.00,VWS V14.01,2013-12-13 03:49:00,
2013-12-12 20:54:00,23.7,7.8,29.96,WSW,239,0.0,0.0,50,0.00,,---,0.00,VWS V14.01,2013-12-13 03:54:00,
2013-12-12 20:59:00,23.5,8.1,29.96,WSW,239,0.0,0.0,51,0.00,,---,0.00,VWS V14.01,2013-12-13 03:59:00,
2013-12-12 21:04:00,23.5,8.1,29.96,WSW,239,0.0,0.0,51,0.00,,---,0.00,VWS V14.01,2013-12-13 04:04:00,
2013-12-12 21:09:00,23.4,7.9,29.96,WSW,239,0.0,0.0,51,0.00,,---,0.00,VWS V14.01,2013-12-13 04:09:00,
2013-12-12 21:14:00,23.4,7.9,29.96,WSW,239,0.0,0.0,51,0.00,,---,0.00,VWS V14.01,2013-12-13 04:14:00,
2013-12-12 21:19:00,23.5,8.5,29.96,WSW,239,0.0,0.0,52,0.00,,---,0.00,VWS V14.01,2013-12-13 04:19:00,
2013-12-12 21:24:00,23.4,8.4,29.96,WSW,239,0.0,0.0,52,0.00,,---,0.00,VWS V14.01,2013-12-13 04:24:00,
2013-12-12 21:29:00,23.5,8.5,29.96,WSW,239,0.0,0.0,52,0.00,,---,0.00,VWS V14.01,2013-12-13 04:29:00,
2013-12-12 21:34:00,23.5,8.9,29.96,WSW,239,0.0,0.0,53,0.00,,---,0.00,VWS V14.01,2013-12-13 04:34:00,
2013-12-12 21:39:00,23.7,9.1,29.96,WSW,239,0.0,0.0,53,0.00,,---,0.00,VWS V14.01,2013-12-13 04:39:00,
2013-12-12 21:44:00,23.7,9.1,29.96,SW,218,0.0,0.0,53,0.00,,---,0.00,VWS V14.01,2013-12-13 04:44:00,
2013-12-12 21:49:00,24.1,9.4,29.96,WSW,242,0.0,0.0,53,0.00,,---,0.00,VWS V14.01,2013-12-13 04:49:00,
2013-12-12 21:54:00,24.4,9.8,29.96,WSW,242,0.0,0.0,53,0.00,,---,0.00,VWS V14.01,2013-12-13 04:54:00,
2013-12-12 21:59:00,24.8,10.1,29.96,WSW,242,0.0,0.0,53,0.00,,---,0.00,VWS V14.01,2013-12-13 04:59:00,
2013-12-12 22:01:00,24.8,10.1,29.96,WSW,242,0.0,0.0,53,0.00,,---,0.00,VWS V14.01,2013-12-13 05:01:00,
2013-12-12 22:06:00,25.2,10.4,29.96,ESE,110,0.0,0.0,53,0.00,,---,0.00,VWS V14.01,2013-12-13 05:06:00,
2013-12-12 22:11:00,25.3,10.6,29.96,ESE,108,0.0,0.0,53,0.00,,---,0.00,VWS V14.01,2013-12-13 05:11:00,
2013-12-12 22:16:00,25.3,10.6,29.96,ESE,108,0.0,0.0,53,0.00,,---,0.00,VWS V14.01,2013-12-13 05:16:00,
2013-12-12 22:21:00,25.5,10.8,29.96,ESE,108,0.0,0.0,53,0.00,,---,0.00,VWS V14.01,2013-12-13 05:21:00,
2013-12-12 22:26:00,25.7,11.4,29.96,ESE,104,0.0,0.0,54,0.00,,---,0.00,VWS V14.01,2013-12-13 05:26:00,
2013-12-12 22:31:00,25.9,11.5,29.96,ESE,104,0.0,0.0,54,0.00,,---,0.00,VWS V14.01,2013-12-13 05:31:00,
2013-12-12 22:36:00,26.1,12.1,29.96,North,353,4.9,4.9,55,0.00,,---,0.00,VWS V14.01,2013-12-13 05:36:00,
2013-12-12 22:41:00,26.1,12.1,29.96,North,1,0.0,4.9,55,0.00,,---,0.00,VWS V14.01,2013-12-13 05:41:00,
2013-12-12 22:46:00,26.2,12.3,29.96,North,6,0.0,0.0,55,0.00,,---,0.00,VWS V14.01,2013-12-13 05:46:00,
2013-12-12 22:51:00,26.4,12.5,29.96,North,1,3.1,4.0,55,0.00,,---,0.00,VWS V14.01,2013-12-13 05:51:00,
2013-12-12 22:56:00,26.4,12.0,29.96,North,2,3.1,4.0,54,0.00,,---,0.00,VWS V14.01,2013-12-13 05:56:00,
2013-12-12 23:01:00,26.4,12.0,29.96,North,0,0.0,0.0,54,0.00,,---,0.00,VWS V14.01,2013-12-13 06:01:00,
2013-12-12 23:06:00,26.4,12.0,29.96,North,0,0.0,0.0,54,0.00,,---,0.00,VWS V14.01,2013-12-13 06:06:00,
2013-12-12 23:11:00,26.2,11.9,29.96,North,0,0.0,0.0,54,0.00,,---,0.00,VWS V14.01,2013-12-13 06:11:00,
2013-12-12 23:16:00,26.2,11.9,29.96,North,0,0.0,0.0,54,0.00,,---,0.00,VWS V14.01,2013-12-13 06:16:00,
2013-12-12 23:21:00,26.1,11.7,29.96,North,0,0.0,0.0,54,0.00,,---,0.00,VWS V14.01,2013-12-13 06:21:00,
2013-12-12 23:26:00,26.1,11.7,29.96,North,0,0.0,0.0,54,0.00,,---,0.00,VWS V14.01,2013-12-13 06:26:00,
2013-12-12 23:31:00,26.1,11.7,29.96,North,0,0.0,0.0,54,0.00,,---,0.00,VWS V14.01,2013-12-13 06:31:00,
2013-12-12 23:36:00,26.1,11.7,29.96,North,0,0.0,0.0,54,0.00,,---,0.00,VWS V14.01,2013-12-13 06:36:00,
2013-12-12 23:41:00,26.1,11.7,29.96,North,0,0.0,0.0,54,0.00,,---,0.00,VWS V14.01,2013-12-13 06:41:00,
2013-12-12 23:46:00,25.9,11.5,29.96,North,0,0.0,0.0,54,0.00,,---,0.00,VWS V14.01,2013-12-13 06:46:00,
2013-12-12 23:51:00,25.9,11.5,29.96,North,0,0.0,0.0,54,0.00,,---,0.00,VWS V14.01,2013-12-13 06:51:00,
2013-12-12 23:56:00,25.9,11.5,29.96,South,191,2.7,2.7,54,0.00,,---,0.00,VWS V14.01,2013-12-13 06:56:00,